Marienberg, Germany

6:46 AM CET on January 27, 2015 (GMT +0100)
ISACHSEN87 | Change Station
CLOSE
Current Station
Personal Weather Station
Location: Annaberg-Buchholz, SACHSEN
Elevation: 2113 ft
Nearby Weather Stations

Elev 2113 ft 50.58 °N, 13.01 °E | Updated 1 minute ago

Light Snow Showers
Light Showers Snow
32.9 °F
Feels Like 33 °F
N
0.0
Wind Variable Wind from North
Gusts 0.0 mph

Today
High -- | Low -- °F
--% Chance of Precip.
Yesterday
High -- | Low -- °F
Precip. -- in
7:50 AM 4:50 PM
Waxing Crescent, 50% visible
Pressure 29.89 in
Visibility 4.3 miles
Clouds Mostly Cloudy 500 ft
Mostly Cloudy 1300 ft
Windchill 33 °F
Dew Point 31 °F
Humidity 91%
Rainfall 0.00 in
Snow Depth Not available.
UV 0 out of 12
Pollen Not available.
Air Quality Not available.
Flu Activity Not available.
SPECI LKKV 270528Z 26010KT 7000 -SHSN BKN005 BKN013 M00/M01 Q1012 R29/////// RMK REG QNH 1008

More Conditions Fewer Conditions

Pressure 29.89 in
Visibility 4.3 miles
Clouds Mostly Cloudy 500 ft
Mostly Cloudy 1300 ft
Windchill 33 °F
Dew Point 31 °F
Humidity 91%
Rainfall 0.00 in
Snow Depth Not available.
UV 0 out of 12
Pollen Not available.
Air Quality Not available.
Flu Activity Not available.
SPECI LKKV 270528Z 26010KT 7000 -SHSN BKN005 BKN013 M00/M01 Q1012 R29/////// RMK REG QNH 1008

More Conditions Fewer Conditions

10-Day Weather Forecast

Almanac

Astronomy

Jan. 27, 2015 Rise Set
Actual Time
Civil Twilight
Nautical Twilight
Astronomical Twilight
Moon
Length of Visible Light
Length of Day
Tomorrow will be .
, % of the Moon is Illuminated

Today's Extremes

Country Highs Country Lows

Community

WunderPhotos

Upload Photos

1,790,536 photos uploaded!

WunderBlogs® & News

Nearby

Air Quality

  Air Quality AQ Index Pollutant
Not available.

Snow Depth

Station Depth Elevation

Earthquake Activity

City Distance Mag. Time & Date
Minimum magnitude displayed is 2.5.

Coastal Water Temperatures

Place Temperature

Nearby Weather Stations